Terminal Aerodrome Forecast
Issued by NWS

Home | Current Version | Previous Version | Text Only | Print | Product List | Glossary Off
Versions: 1 2 3 4 5 6 7 8 9 10 11 12 13 14 15 16 17 18

000
FTUS43 KMPX 151100 RRA
TAFRWF
TAF
KRWF 151142Z 1512/1612 34005KT P6SM SKC
     FM151800 15012KT P6SM BKN150
     FM160000 13014G20KT P6SM OVC100
     FM161100 13018G24KT P6SM VCSH SCT030 OVC060=

USA.gov is the U.S. government's official web portal to all federal, state and local government web resources and services.